Sunday, December 17, 2017, 2:41 PM EST
Back to Local

KDMH, Baltimore Downtown

Location: Baltimore, MD, United States Lat: 39.283
Local Time: 2:41 PM EST (19:41 GMT) Lon: -76.617
Time Zone: US/Eastern Elev: 19 ft

Show me the last for .
Show Coded

Time T Td Feel RH Dir Speed Gust Alt SLP Vis Weather Sky Remarks
2017-12-17 13:54 45 34 - 65 - - - 30.20 30.20 0 None
2017-12-17 12:54 46 32 - 57 - - - 30.22 30.22 0 6-hr Min Temp (1pm): 34.0°F
6-hr Max Temp (1pm): 48.0°F
2017-12-17 11:54 47 31 - 53 - - - 30.28 30.27 0 None
2017-12-17 10:54 44 29 - 55 - - - 30.30 30.29 0 None
2017-12-17 09:54 42 29 - 59 - - - 30.29 30.29 0 None
2017-12-17 08:54 39 28 - 64 - - - 30.29 30.28 0 None
2017-12-17 07:54 35 28 - 75 - - - 30.26 30.26 0 None
2017-12-17 06:54 34 27 - 75 - - - 30.26 30.26 0 6-hr Min Temp (7am): 33.1°F
6-hr Max Temp (7am): 37.0°F
2017-12-17 05:54 34 27 - 75 - - - 30.23 30.23 0 None
2017-12-17 04:54 34 26 - 72 - - - 30.22 30.21 0 None
2017-12-17 03:54 35 26 - 69 - - - 30.23 30.22 0 None
2017-12-17 02:54 36 25 - 63 - - - 30.23 30.22 0 None
2017-12-17 01:54 36 27 - 69 - - - 30.21 30.21 0 None
2017-12-17 00:54 36 27 - 69 - - - 30.21 30.20 0 6-hr Min Temp (1am): 36.0°F
6-hr Max Temp (1am): 41.0°F
2017-12-16 23:54 37 28 - 69 - - - 30.20 30.20 0 24-hr Min Temp (12am): 25.0°F
24-hr Max Temp (12am): 46.9°F
2017-12-16 22:54 38 27 - 64 - - - 30.18 30.18 0 None
2017-12-16 21:54 39 26 - 59 - - - 30.17 30.16 0 None
2017-12-16 20:54 40 25 - 54 - - - 30.16 30.16 0 None
2017-12-16 19:54 41 24 - 50 - - - 30.15 30.15 0 None
2017-12-16 18:54 41 25 - 52 - - - 30.14 30.14 0 6-hr Min Temp (7pm): 41.0°F
6-hr Max Temp (7pm): 46.9°F
2017-12-16 17:54 42 25 - 50 - - - 30.11 30.11 0 None
2017-12-16 16:54 44 24 - 44 - - - 30.08 30.08 0 None
2017-12-16 15:54 46 22 - 38 - - - 30.06 30.06 0 None
2017-12-16 14:54 46 22 - 38 - - - 30.05 30.05 0 None

Support USWX by starting your Amazon purchase here.